createdAt,value
2024-03-12T00:02:37.522Z,9.65
2024-03-12T00:05:39.550Z,9.52
2024-03-12T00:08:41.726Z,9.37
2024-03-12T00:11:43.869Z,10.10
2024-03-12T00:14:45.963Z,9.32
2024-03-12T00:17:48.459Z,10.48
2024-03-12T00:20:52.493Z,10.20
2024-03-12T00:23:54.556Z,8.88
2024-03-12T00:26:56.556Z,10.02
2024-03-12T00:29:58.595Z,9.17
2024-03-12T00:33:02.065Z,8.40
2024-03-12T00:36:04.190Z,9.18
2024-03-12T00:39:06.139Z,9.25
2024-03-12T00:42:08.317Z,8.70
2024-03-12T00:45:12.823Z,9.07
2024-03-12T00:48:15.325Z,9.35
2024-03-12T00:51:19.404Z,8.60
2024-03-12T00:54:21.484Z,7.93
2024-03-12T00:57:24.063Z,8.05
2024-03-12T01:00:35.180Z,9.30
2024-03-12T01:03:37.402Z,7.75
2024-03-12T01:06:40.321Z,7.88
2024-03-12T01:09:42.486Z,7.13
2024-03-12T01:12:44.792Z,7.30
2024-03-12T01:15:47.162Z,8.07
2024-03-12T01:18:49.337Z,7.90
2024-03-12T01:21:52.704Z,6.97
2024-03-12T01:24:55.132Z,7.03
2024-03-12T01:27:57.634Z,6.68
2024-03-12T01:31:01.711Z,5.78
2024-03-12T01:34:04.040Z,6.00
2024-03-12T01:37:07.824Z,5.70
2024-03-12T01:40:31.436Z,5.15
2024-03-12T01:43:33.968Z,4.80
2024-03-12T01:46:36.386Z,3.90
2024-03-12T01:49:38.741Z,4.30
2024-03-12T01:52:40.837Z,2.80
2024-03-12T01:55:46.480Z,3.20
2024-03-12T01:58:52.062Z,3.10
2024-03-12T02:02:01.234Z,3.83
2024-03-12T02:05:03.656Z,3.37
2024-03-12T02:08:05.886Z,4.22
2024-03-12T02:11:07.849Z,3.40
2024-03-12T02:14:10.058Z,3.70
2024-03-12T02:17:12.472Z,2.97
2024-03-12T02:20:14.721Z,2.67
2024-03-12T02:23:16.787Z,2.35
2024-03-12T02:26:19.049Z,2.42
2024-03-12T02:29:21.120Z,2.35
2024-03-12T02:32:26.273Z,2.35
2024-03-12T02:35:28.310Z,1.77
2024-03-12T02:38:31.039Z,1.60
2024-03-12T02:41:33.258Z,1.83
2024-03-12T02:44:36.033Z,1.60
2024-03-12T02:47:38.032Z,1.92
2024-03-12T02:50:40.854Z,1.73
2024-03-12T02:53:42.909Z,1.90
2024-03-12T02:56:44.952Z,1.60
2024-03-12T02:59:47.034Z,1.85
2024-03-12T03:02:49.130Z,3.47
2024-03-12T03:05:51.227Z,3.07
2024-03-12T03:08:53.393Z,3.13
2024-03-12T03:11:56.932Z,3.20
2024-03-12T03:14:59.067Z,2.93
2024-03-12T03:18:02.400Z,2.40
2024-03-12T03:21:04.788Z,2.55
2024-03-12T03:24:06.972Z,2.40
2024-03-12T03:27:09.010Z,1.98
2024-03-12T03:30:18.988Z,2.25
2024-03-12T03:33:23.729Z,1.70
2024-03-12T03:36:27.635Z,1.57
2024-03-12T03:39:29.815Z,1.77
2024-03-12T03:42:32.645Z,1.98
2024-03-12T03:45:34.773Z,2.13
2024-03-12T03:48:36.870Z,2.28
2024-03-12T03:51:39.003Z,1.75
2024-03-12T03:54:41.104Z,1.75
2024-03-12T03:57:43.210Z,1.98
2024-03-12T04:00:45.358Z,1.77
2024-03-12T04:03:47.545Z,2.03
2024-03-12T04:06:51.950Z,1.83
2024-03-12T04:09:56.067Z,1.67
2024-03-12T04:12:58.350Z,1.48
2024-03-12T04:16:00.786Z,1.70
2024-03-12T04:19:03.065Z,1.75
2024-03-12T04:22:07.258Z,1.75
2024-03-12T04:25:09.986Z,1.45
2024-03-12T04:28:17.038Z,1.98
2024-03-12T04:31:21.968Z,2.28
2024-03-12T04:34:24.170Z,2.15
2024-03-12T04:37:26.126Z,1.87
2024-03-12T04:40:28.224Z,1.90
2024-03-12T04:43:30.200Z,1.67
2024-03-12T04:46:32.277Z,1.70
2024-03-12T04:49:34.302Z,2.33
2024-03-12T04:52:36.461Z,2.60
2024-03-12T04:55:40.367Z,2.38
2024-03-12T04:58:42.760Z,2.10
2024-03-12T05:01:50.351Z,1.90
2024-03-12T05:04:52.483Z,1.98
2024-03-12T05:07:54.612Z,2.13
2024-03-12T05:10:58.062Z,2.40
2024-03-12T05:14:01.716Z,2.75
2024-03-12T05:17:03.995Z,2.70
2024-03-12T05:20:10.839Z,2.80
2024-03-12T05:23:13.529Z,2.47
2024-03-12T05:26:18.481Z,2.95
2024-03-12T05:29:22.067Z,2.80
2024-03-12T05:32:25.022Z,2.75
2024-03-12T05:35:31.304Z,6.22
2024-03-12T05:38:33.385Z,5.47
2024-03-12T05:41:58.447Z,3.63
2024-03-12T05:45:18.956Z,2.67
2024-03-12T05:48:21.066Z,3.63
2024-03-12T05:51:23.292Z,6.43
2024-03-12T05:54:25.504Z,4.07
2024-03-12T05:57:29.496Z,3.15
2024-03-12T06:00:31.802Z,2.63
2024-03-12T06:03:33.928Z,1.85
2024-03-12T06:06:36.076Z,2.47
2024-03-12T06:09:38.313Z,2.10
2024-03-12T06:12:40.588Z,2.65
2024-03-12T06:15:42.686Z,3.65
2024-03-12T06:18:44.931Z,3.30
2024-03-12T06:21:47.200Z,3.08
2024-03-12T06:24:49.455Z,2.88
2024-03-12T06:27:52.016Z,1.30
2024-03-12T06:30:54.333Z,0.80
2024-03-12T06:33:56.429Z,0.52
2024-03-12T06:37:01.148Z,0.95
2024-03-12T06:40:05.535Z,1.40
2024-03-12T06:43:07.766Z,1.23
2024-03-12T06:46:10.775Z,1.20
2024-03-12T06:49:13.890Z,1.60
2024-03-12T06:52:18.245Z,1.77
2024-03-12T06:55:26.549Z,1.48
2024-03-12T06:58:30.010Z,1.20
2024-03-12T07:01:32.609Z,1.50
2024-03-12T07:05:11.879Z,1.35
2024-03-12T07:08:25.871Z,1.23
2024-03-12T07:11:35.619Z,1.10
2024-03-12T07:14:56.282Z,1.40
2024-03-12T07:18:00.230Z,1.55
2024-03-12T07:21:02.434Z,1.15
2024-03-12T07:24:08.063Z,1.75
2024-03-12T07:27:10.481Z,1.65
2024-03-12T07:30:12.752Z,1.58
2024-03-12T07:33:15.038Z,1.23
2024-03-12T07:36:17.295Z,1.42
2024-03-12T07:39:37.837Z,1.80
2024-03-12T07:42:42.836Z,2.05
2024-03-12T07:45:48.251Z,1.50
2024-03-12T07:48:50.392Z,1.48
2024-03-12T07:51:53.564Z,1.60
2024-03-12T07:54:56.448Z,11.38
2024-03-12T07:57:59.211Z,5.40
2024-03-12T08:01:02.652Z,4.57
2024-03-12T08:04:05.009Z,1.88
2024-03-12T08:07:07.180Z,2.27
2024-03-12T08:10:11.256Z,1.85
2024-03-12T08:13:14.239Z,1.80
2024-03-12T08:16:17.289Z,1.83
2024-03-12T08:19:19.536Z,1.70
2024-03-12T08:22:23.537Z,2.25
2024-03-12T08:25:29.704Z,2.30
2024-03-12T08:28:33.618Z,1.85
2024-03-12T08:31:44.866Z,2.20
2024-03-12T08:34:53.598Z,2.40
2024-03-12T08:37:55.748Z,2.20
2024-03-12T08:40:57.944Z,1.90
2024-03-12T08:44:00.067Z,1.80
2024-03-12T08:47:02.245Z,2.17
2024-03-12T08:50:04.558Z,2.03
2024-03-12T08:53:06.826Z,2.17
2024-03-12T08:56:10.586Z,2.70
2024-03-12T08:59:15.333Z,2.28
2024-03-12T09:02:19.506Z,2.33
2024-03-12T09:05:22.018Z,1.80
2024-03-12T09:08:26.791Z,2.13
2024-03-12T09:11:29.255Z,2.03
2024-03-12T09:14:33.857Z,2.22
2024-03-12T09:17:41.956Z,2.38
2024-03-12T09:20:44.333Z,1.93
2024-03-12T09:23:56.571Z,1.92
2024-03-12T09:27:07.532Z,1.83
2024-03-12T09:30:12.009Z,2.25
2024-03-12T09:33:15.293Z,2.13
2024-03-12T09:36:17.977Z,2.47
2024-03-12T09:39:33.423Z,1.77
2024-03-12T09:42:37.483Z,1.40
2024-03-12T09:45:40.925Z,1.53
2024-03-12T09:48:52.946Z,1.00
2024-03-12T09:52:09.894Z,1.27
2024-03-12T09:55:12.730Z,1.88
2024-03-12T09:58:15.476Z,1.60
2024-03-12T10:01:18.564Z,2.03
2024-03-12T10:04:21.462Z,1.10
2024-03-12T10:07:26.144Z,1.10
2024-03-12T10:10:28.996Z,0.60
2024-03-12T10:13:31.918Z,0.87
2024-03-12T10:16:35.108Z,0.60
2024-03-12T10:19:37.704Z,0.63
2024-03-12T10:22:40.273Z,0.20
2024-03-12T10:25:46.297Z,0.27
2024-03-12T10:28:52.498Z,0.40
2024-03-12T10:31:56.160Z,0.40
2024-03-12T10:35:00.700Z,0.50
2024-03-12T10:38:05.502Z,0.20
2024-03-12T10:41:22.451Z,0.40
2024-03-12T10:44:25.657Z,0.32
2024-03-12T10:47:28.099Z,0.93
2024-03-12T10:50:31.012Z,0.70
2024-03-12T10:53:35.234Z,0.60
2024-03-12T10:56:38.643Z,0.57
2024-03-12T10:59:40.950Z,0.50
2024-03-12T11:02:43.925Z,0.55
2024-03-12T11:05:46.646Z,0.40
2024-03-12T11:08:51.627Z,0.33
2024-03-12T11:11:53.795Z,0.25
2024-03-12T11:14:56.079Z,0.40
2024-03-12T11:17:58.470Z,0.20
2024-03-12T11:21:00.643Z,0.30
2024-03-12T11:24:02.973Z,0.37
2024-03-12T11:27:05.343Z,0.28
2024-03-12T11:30:16.116Z,0.60
2024-03-12T11:33:37.061Z,0.57
2024-03-12T11:36:41.244Z,0.70
2024-03-12T11:39:43.817Z,0.50
2024-03-12T11:42:46.122Z,0.47
2024-03-12T11:45:48.871Z,0.70
2024-03-12T11:48:52.634Z,0.70
2024-03-12T11:51:55.712Z,0.68
2024-03-12T11:54:58.171Z,1.83
2024-03-12T11:58:01.424Z,2.10
2024-03-12T12:01:07.500Z,1.00
2024-03-12T12:04:12.169Z,1.00
2024-03-12T12:07:17.031Z,0.70
2024-03-12T12:10:25.846Z,1.20
2024-03-12T12:13:29.669Z,0.90
2024-03-12T12:16:33.163Z,0.52
2024-03-12T12:19:42.117Z,0.73
2024-03-12T12:22:48.952Z,0.80
2024-03-12T12:25:56.637Z,0.70
2024-03-12T12:28:58.870Z,0.75
2024-03-12T12:32:01.790Z,0.80
2024-03-12T12:35:14.764Z,1.00
2024-03-12T12:38:17.971Z,1.40
2024-03-12T12:41:23.619Z,1.43
2024-03-12T12:44:28.469Z,1.67
2024-03-12T12:47:31.015Z,1.35
2024-03-12T12:50:33.479Z,1.17
2024-03-12T12:53:36.683Z,1.60
2024-03-12T12:56:42.613Z,1.40
2024-03-12T12:59:44.802Z,1.55
2024-03-12T13:02:47.601Z,1.38
2024-03-12T13:05:51.512Z,1.40
2024-03-12T13:08:54.056Z,1.50
2024-03-12T13:11:56.914Z,1.67
2024-03-12T13:14:59.591Z,1.70
2024-03-12T13:18:01.869Z,1.47
2024-03-12T13:21:08.160Z,1.63
2024-03-12T13:24:10.262Z,1.50
2024-03-12T13:27:12.673Z,1.45
2024-03-12T13:30:15.889Z,4.65
2024-03-12T13:33:18.178Z,1.60
2024-03-12T13:36:32.732Z,1.67
2024-03-12T13:39:35.989Z,1.88
2024-03-12T13:42:38.118Z,1.98
2024-03-12T13:45:58.653Z,1.67
2024-03-12T13:49:12.844Z,2.20
2024-03-12T13:52:16.016Z,2.45
2024-03-12T13:55:18.216Z,2.10
2024-03-12T13:58:21.206Z,2.43
2024-03-12T14:01:24.242Z,2.20
2024-03-12T14:04:32.560Z,1.52
2024-03-12T14:07:36.066Z,2.00
2024-03-12T14:10:40.295Z,2.00
2024-03-12T14:13:43.937Z,2.33
2024-03-12T14:16:46.422Z,2.20
2024-03-12T14:19:48.516Z,1.88
2024-03-12T14:22:50.643Z,1.63
2024-03-12T14:25:55.958Z,1.50
2024-03-12T14:29:02.738Z,1.67
2024-03-12T14:32:07.856Z,1.40
2024-03-12T14:35:10.645Z,1.90
2024-03-12T14:38:13.268Z,1.75
2024-03-12T14:41:15.349Z,1.50
2024-03-12T14:44:17.512Z,1.35
2024-03-12T14:47:22.854Z,1.70
2024-03-12T14:50:25.172Z,1.80
2024-03-12T14:53:27.376Z,2.20
2024-03-12T14:56:31.057Z,1.60
2024-03-12T14:59:35.009Z,2.07
2024-03-12T15:02:37.498Z,2.00
2024-03-12T15:05:39.623Z,1.83
2024-03-12T15:08:41.650Z,1.90
2024-03-12T15:11:44.155Z,1.70
2024-03-12T15:14:47.998Z,2.05
2024-03-12T15:17:50.021Z,1.95
2024-03-12T15:20:52.237Z,2.13
2024-03-12T15:23:54.360Z,1.70
2024-03-12T15:27:02.835Z,2.03
2024-03-12T15:30:08.677Z,2.50
2024-03-12T15:33:11.047Z,2.10
2024-03-12T15:36:13.179Z,2.43
2024-03-12T15:39:16.009Z,1.97
2024-03-12T15:42:18.510Z,2.35
2024-03-12T15:45:22.037Z,2.47
2024-03-12T15:48:24.699Z,1.80
2024-03-12T15:51:28.322Z,1.90
2024-03-12T15:54:30.402Z,1.83
2024-03-12T15:57:32.532Z,2.45
2024-03-12T16:00:35.563Z,3.33
2024-03-12T16:03:37.762Z,2.70
2024-03-12T16:06:42.360Z,3.22
2024-03-12T16:09:45.250Z,2.85
2024-03-12T16:12:47.728Z,4.20
2024-03-12T16:16:30.446Z,6.10
2024-03-12T16:19:48.015Z,5.18
2024-03-12T16:22:50.248Z,3.70
2024-03-12T16:25:52.414Z,2.73
2024-03-12T16:28:57.724Z,3.50
2024-03-12T16:32:11.648Z,5.05
2024-03-12T16:35:16.060Z,4.20
2024-03-12T16:38:18.694Z,3.22
2024-03-12T16:41:20.769Z,3.20
2024-03-12T16:44:23.778Z,2.40
2024-03-12T16:47:26.801Z,3.13
2024-03-12T16:50:28.816Z,2.53
2024-03-12T16:53:32.419Z,3.10
2024-03-12T16:56:34.673Z,3.20
2024-03-12T16:59:36.955Z,3.03
2024-03-12T17:02:45.310Z,3.70
2024-03-12T17:05:47.718Z,3.70
2024-03-12T17:08:50.219Z,4.20
2024-03-12T17:11:52.520Z,4.10
2024-03-12T17:14:55.407Z,5.00
2024-03-12T17:17:57.860Z,5.70
2024-03-12T17:21:00.605Z,5.53
2024-03-12T17:24:02.921Z,4.88
2024-03-12T17:27:11.603Z,4.07
2024-03-12T17:30:14.829Z,4.33
2024-03-12T17:33:17.701Z,4.60
2024-03-12T17:36:19.788Z,3.70
2024-03-12T17:39:21.868Z,3.77
2024-03-12T17:42:24.737Z,3.70
2024-03-12T17:45:26.970Z,3.70
2024-03-12T17:48:29.240Z,4.10
2024-03-12T17:51:31.415Z,3.63
2024-03-12T17:54:33.782Z,4.60
2024-03-12T17:57:38.773Z,4.95
2024-03-12T18:00:41.639Z,5.10
2024-03-12T18:03:44.074Z,4.25
2024-03-12T18:06:47.439Z,5.90
2024-03-12T18:09:53.709Z,8.93
2024-03-12T18:12:56.477Z,7.70
2024-03-12T18:15:59.394Z,6.47
2024-03-12T18:19:01.529Z,6.20
2024-03-12T18:22:03.753Z,5.85
2024-03-12T18:25:09.245Z,5.90
2024-03-12T18:28:11.484Z,5.95
2024-03-12T18:31:14.140Z,5.07
2024-03-12T18:34:18.716Z,4.85
2024-03-12T18:37:21.091Z,5.22
2024-03-12T18:40:23.905Z,5.07
2024-03-12T18:43:26.168Z,5.57
2024-03-12T18:46:28.382Z,5.53
2024-03-12T18:49:30.659Z,5.95
2024-03-12T18:52:33.312Z,5.45
2024-03-12T18:55:35.557Z,5.80
2024-03-12T18:58:37.763Z,5.60
2024-03-12T19:01:41.276Z,5.38
2024-03-12T19:04:43.377Z,5.50
2024-03-12T19:07:46.009Z,6.75
2024-03-12T19:10:48.175Z,6.78
2024-03-12T19:13:50.461Z,6.50
2024-03-12T19:16:53.432Z,6.80
2024-03-12T19:19:56.210Z,5.65
2024-03-12T19:23:00.368Z,6.38
2024-03-12T19:26:05.273Z,6.57
2024-03-12T19:29:08.327Z,6.80
2024-03-12T19:32:11.925Z,6.88
2024-03-12T19:35:14.243Z,6.72
2024-03-12T19:38:16.577Z,7.47
2024-03-12T19:41:19.060Z,6.75
2024-03-12T19:44:21.164Z,7.05
2024-03-12T19:47:23.829Z,6.43
2024-03-12T19:50:26.351Z,6.65
2024-03-12T19:53:28.440Z,7.90
2024-03-12T19:56:30.621Z,6.35
2024-03-12T19:59:33.451Z,6.73
2024-03-12T20:02:35.538Z,7.00
2024-03-12T20:05:37.829Z,7.28
2024-03-12T20:08:40.211Z,7.60
2024-03-12T20:11:42.268Z,8.75
2024-03-12T20:14:45.109Z,8.60
2024-03-12T20:17:47.204Z,7.90
2024-03-12T20:20:49.278Z,8.48
2024-03-12T20:23:52.434Z,7.65
2024-03-12T20:26:54.539Z,7.45
2024-03-12T20:29:56.598Z,6.50
2024-03-12T20:32:59.989Z,9.02
2024-03-12T20:36:05.911Z,6.97
2024-03-12T20:39:12.668Z,8.10
2024-03-12T20:42:14.965Z,8.07
2024-03-12T20:45:21.544Z,7.90
2024-03-12T20:48:23.844Z,7.35
2024-03-12T20:51:26.196Z,7.68
2024-03-12T20:54:28.345Z,8.13
2024-03-12T20:57:30.279Z,8.55
2024-03-12T21:00:34.513Z,8.13
2024-03-12T21:03:39.018Z,7.45
2024-03-12T21:06:42.128Z,7.63
2024-03-12T21:09:44.204Z,8.00
2024-03-12T21:12:51.092Z,7.65
2024-03-12T21:15:53.209Z,7.82
2024-03-12T21:18:55.245Z,7.55
2024-03-12T21:21:57.442Z,7.65
2024-03-12T21:25:00.732Z,7.63
2024-03-12T21:28:03.119Z,7.03
2024-03-12T21:31:05.181Z,7.00
2024-03-12T21:34:10.064Z,7.80
2024-03-12T21:37:12.392Z,8.05
2024-03-12T21:40:14.772Z,7.43
2024-03-12T21:43:17.048Z,7.50
2024-03-12T21:46:22.352Z,8.57
2024-03-12T21:49:24.425Z,8.60
2024-03-12T21:52:26.511Z,9.15
2024-03-12T21:55:28.704Z,10.40
2024-03-12T21:58:32.739Z,9.75
2024-03-12T22:01:35.312Z,9.47
2024-03-12T22:04:37.462Z,11.00
2024-03-12T22:07:39.524Z,10.63
2024-03-12T22:10:42.258Z,9.23
2024-03-12T22:13:45.616Z,7.63
2024-03-12T22:16:48.116Z,8.20
2024-03-12T22:19:50.183Z,8.40
2024-03-12T22:22:52.276Z,9.30
2024-03-12T22:25:55.229Z,9.13
2024-03-12T22:28:57.246Z,9.40
2024-03-12T22:32:00.639Z,9.97
2024-03-12T22:35:02.667Z,9.23
2024-03-12T22:38:06.329Z,8.30
2024-03-12T22:41:09.102Z,8.13
2024-03-12T22:44:11.928Z,8.25
2024-03-12T22:47:14.220Z,7.80
2024-03-12T22:50:18.542Z,8.85
2024-03-12T22:53:21.084Z,8.27
2024-03-12T22:56:23.220Z,8.98
2024-03-12T22:59:27.685Z,8.80
2024-03-12T23:02:29.646Z,8.00
2024-03-12T23:05:35.679Z,7.88
2024-03-12T23:08:38.124Z,8.02
2024-03-12T23:11:42.281Z,8.60
2024-03-12T23:14:44.724Z,8.38
2024-03-12T23:17:49.889Z,8.55
2024-03-12T23:20:53.619Z,8.10
2024-03-12T23:23:55.896Z,7.28
2024-03-12T23:26:58.723Z,7.93
2024-03-12T23:30:01.473Z,8.15
2024-03-12T23:33:03.605Z,7.53
2024-03-12T23:36:06.578Z,7.57
2024-03-12T23:39:08.568Z,8.68
2024-03-12T23:42:10.642Z,8.37
2024-03-12T23:45:12.673Z,8.00
2024-03-12T23:48:16.264Z,8.45
2024-03-12T23:51:18.339Z,8.43
2024-03-12T23:54:20.351Z,7.95
2024-03-12T23:57:22.403Z,8.48
